Other Surface Observations
Issued by NWS

Home | Current Version | Previous Version | Text Only | Print | Product List | Glossary On
Versions: 1 2 3 4 5 6 7 8 9 10 11 12 13 14 15 16 17 18 19 20 21 22 23 24 25 26 27 28 29 30 31 32 33 34 35 36 37 38 39 40 41 42 43 44 45 46 47 48 49 50
000
SXAK55 KWBC 300809
OSOAK
:SHEF ENCODED 6-MINUTE NOS MET DATA
:NATIONAL WATER LEVEL OBSERVATION NETWORK (NWLON)
:TA(AIR TEMP DEG F)  SLP(SEA LEVEL PRESSURE INCHES)
:UD(WIND DIRECTION WHOLE DEGREES) US (WIND SPEED MPH)
:TW(WATER TEMP DEG F) UG(WIND GUSTS MPH) WC(CONDUCTIVITY uMHOS/CM)
:-9999 (MISSING VALUES)
:PROVIDED BY DOC/NOAA/NOS/CO-OPS, (301) 713-2540
:corms@noaa.gov
.E KECA2 20210730 Z DH0754/TAIRG/DIN06/   60/   60
.E KECA2 20210730 Z DH0754/PLIRG/DIN06/30.10/30.10
.E KECA2 20210730 Z DH0754/USIRG/DIN06/    0/    0
.E KECA2 20210730 Z DH0754/UDIRG/DIN06/   89/   89
.E KECA2 20210730 Z DH0754/UGIRG/DIN06/    0/    0
.E KECA2 20210730 Z DH0754/TWIRG/DIN06/   58/   58
.E PLXA2 20210730 Z DH0748/TAIRG/DIN06/   58/   60
.E PLXA2 20210730 Z DH0748/PLIRG/DIN06/30.13/30.13
.E PLXA2 20210730 Z DH0748/USIRG/DIN06/    1/    2
.E PLXA2 20210730 Z DH0748/UDIRG/DIN06/  332/  349
.E PLXA2 20210730 Z DH0748/UGIRG/DIN06/    3/    3
.E PLXA2 20210730 Z DH0748/TWIRG/DIN06/   54/   54
.A ITKA2 20210730 Z DH0754/TAIRG    62/UGIRG -9999/PLIRG 30.11/UDIRG -9999/USIRG -9999/TWIRG    59/WCIRG -9999
.A JNEA2 20210730 Z DH0754/TAIRG    55/UGIRG     1/PLIRG 30.15/UDIRG   149/USIRG     0/TWIRG    53/WCIRG -9999
.E SKTA2 20210730 Z DH0748/TAIRG/DIN06/   55/   56
.E SKTA2 20210730 Z DH0748/PLIRG/DIN06/30.17/30.17
.E SKTA2 20210730 Z DH0748/TWIRG/DIN06/   50/   50
.A ELFA2 20210730 Z DH0754/TAIRG    51/UGIRG -9999/PLIRG 30.18/UDIRG -9999/USIRG -9999/TWIRG    53/WCIRG -9999
.E YATA2 20210730 Z DH0754/PLIRG/DIN06/30.20/30.20
.E YATA2 20210730 Z DH0754/TWIRG/DIN06/   59/   59
.A CRVA2 20210730 Z DH0754/TAIRG    54/UGIRG     4/PLIRG 30.19/UDIRG   180/USIRG     1/TWIRG    53/WCIRG -9999
.E VDZA2 20210730 Z DH0748/TAIRG/DIN06/   55/   55
.E VDZA2 20210730 Z DH0748/PLIRG/DIN06/30.19/30.19
.E VDZA2 20210730 Z DH0748/USIRG/DIN06/    4/    0
.E VDZA2 20210730 Z DH0748/UDIRG/DIN06/  220/   28
.E VDZA2 20210730 Z DH0748/UGIRG/DIN06/    5/    4
.E SWLA2 20210730 Z DH0748/PLIRG/DIN06/30.17/30.17
.E SWLA2 20210730 Z DH0748/TWIRG/DIN06/   58/   59
.E OVIA2 20210730 Z DH0754/PLIRG/DIN06/30.20/30.20
.E OVIA2 20210730 Z DH0754/TWIRG/DIN06/   51/   51
.E NKTA2 20210730 Z DH0748/TAIRG/DIN06/   54/   54
.E NKTA2 20210730 Z DH0748/PLIRG/DIN06/30.21/30.21
.E NKTA2 20210730 Z DH0748/USIRG/DIN06/    9/    6
.E NKTA2 20210730 Z DH0748/UDIRG/DIN06/  226/  221
.E NKTA2 20210730 Z DH0748/UGIRG/DIN06/   11/    9
.E NKTA2 20210730 Z DH0748/TWIRG/DIN06/   55/   55
.E ANTA2 20210730 Z DH0748/TAIRG/DIN06/   56/   56
.E ANTA2 20210730 Z DH0748/PLIRG/DIN06/30.20/30.20
.E ANTA2 20210730 Z DH0748/USIRG/DIN06/    8/    8
.E ANTA2 20210730 Z DH0748/UDIRG/DIN06/  245/  247
.E ANTA2 20210730 Z DH0748/UGIRG/DIN06/   10/   10
.E ANTA2 20210730 Z DH0748/TWIRG/DIN06/   59/   59
.E KDAA2 20210730 Z DH0748/TAIRG/DIN06/   55/   55
.E KDAA2 20210730 Z DH0748/PLIRG/DIN06/30.22/30.22
.E KDAA2 20210730 Z DH0748/USIRG/DIN06/    1/    0
.E KDAA2 20210730 Z DH0748/UDIRG/DIN06/  143/  138
.E KDAA2 20210730 Z DH0748/UGIRG/DIN06/    2/    2
.E KDAA2 20210730 Z DH0748/TWIRG/DIN06/   52/   52
.E ALIA2 20210730 Z DH0754/TAIRG/DIN06/   53/   53
.E ALIA2 20210730 Z DH0754/PLIRG/DIN06/30.25/30.25
.E ALIA2 20210730 Z DH0754/USIRG/DIN06/    0/    0
.E ALIA2 20210730 Z DH0754/UDIRG/DIN06/  116/  116
.E ALIA2 20210730 Z DH0754/UGIRG/DIN06/    1/    1
.E ALIA2 20210730 Z DH0754/TWIRG/DIN06/   51/   51
.A SNDA2 20210730 Z DH0754/TAIRG    51/UGIRG     7/PLIRG 30.15/UDIRG   114/USIRG     3/TWIRG    49/WCIRG -9999
.E KGCA2 20210730 Z DH0754/TAIRG/DIN06/   53/   53
.E KGCA2 20210730 Z DH0754/PLIRG/DIN06/30.08/30.08
.E KGCA2 20210730 Z DH0754/USIRG/DIN06/    6/    3
.E KGCA2 20210730 Z DH0754/UDIRG/DIN06/  262/  244
.E KGCA2 20210730 Z DH0754/UGIRG/DIN06/    8/    7
.E KGCA2 20210730 Z DH0754/TWIRG/DIN06/   51/   51
.E ADKA2 20210730 Z DH0748/TAIRG/DIN06/   50/   50
.E ADKA2 20210730 Z DH0748/PLIRG/DIN06/29.83/29.84
.E ADKA2 20210730 Z DH0748/USIRG/DIN06/    1/    0
.E ADKA2 20210730 Z DH0748/UDIRG/DIN06/  167/  162
.E ADKA2 20210730 Z DH0748/UGIRG/DIN06/    2/    2
.E ADKA2 20210730 Z DH0748/TWIRG/DIN06/   47/   47
.E ATKA2 20210730 Z DH0748/TAIRG/DIN06/   52/   52
.E ATKA2 20210730 Z DH0748/PLIRG/DIN06/29.84/29.85
.E ATKA2 20210730 Z DH0748/USIRG/DIN06/    6/    5
.E ATKA2 20210730 Z DH0748/UDIRG/DIN06/  118/  107
.E ATKA2 20210730 Z DH0748/UGIRG/DIN06/   10/    8
.E ATKA2 20210730 Z DH0748/TWIRG/DIN06/   44/   44
.A OLSA2 20210730 Z DH0754/TAIRG    52/UGIRG    29/PLIRG 29.95/UDIRG    94/USIRG    23/TWIRG -9999/WCIRG -9999
.E UNLA2 20210730 Z DH0748/TAIRG/DIN06/   61/   62
.E UNLA2 20210730 Z DH0748/PLIRG/DIN06/29.94/29.94
.E UNLA2 20210730 Z DH0748/USIRG/DIN06/    8/    7
.E UNLA2 20210730 Z DH0748/UDIRG/DIN06/  170/  176
.E UNLA2 20210730 Z DH0748/UGIRG/DIN06/   15/   16
.E UNLA2 20210730 Z DH0748/TWIRG/DIN06/   47/   48
.E VCVA2 20210730 Z DH0754/PLIRG/DIN06/29.89/29.89
.E VCVA2 20210730 Z DH0754/TWIRG/DIN06/   48/   48
.A ULRA2 20210730 Z DH0754/TAIRG -9999/UGIRG -9999/PLIRG 29.93/UDIRG -9999/USIRG -9999/TWIRG -9999/WCIRG -9999
.E NMTA2 20210730 Z DH0748/TAIRG/DIN06/   48/   48
.E NMTA2 20210730 Z DH0748/PLIRG/DIN06/29.83/29.83
.E NMTA2 20210730 Z DH0748/USIRG/DIN06/    7/    6
.E NMTA2 20210730 Z DH0748/UDIRG/DIN06/  186/  180
.E NMTA2 20210730 Z DH0748/UGIRG/DIN06/    9/    9
.E RDDA2 20210730 Z DH0748/TAIRG/DIN06/   52/   52
.E RDDA2 20210730 Z DH0748/PLIRG/DIN06/29.75/29.75
.E RDDA2 20210730 Z DH0748/USIRG/DIN06/    9/    6
.E RDDA2 20210730 Z DH0748/UDIRG/DIN06/  135/  140
.E RDDA2 20210730 Z DH0748/UGIRG/DIN06/   11/    9
.E RDDA2 20210730 Z DH0748/TWIRG/DIN06/   53/   53
.E PRDA2 20210730 Z DH0748/TAIRG/DIN06/   55/   55
.E PRDA2 20210730 Z DH0748/PLIRG/DIN06/29.80/29.80
.E PRDA2 20210730 Z DH0748/USIRG/DIN06/   15/   15
.E PRDA2 20210730 Z DH0748/UDIRG/DIN06/  236/  237
.E PRDA2 20210730 Z DH0748/UGIRG/DIN06/   17/   16
.E PRDA2 20210730 Z DH0748/TWIRG/DIN06/   49/   49



USA.gov is the U.S. government's official web portal to all federal, state and local government web resources and services.